Time;durP1;ratioP1;P1;durP2;ratioP2;P2;SDS_P1;SDS_P2;PMS_P1;PMS_P2;Temp;Humidity;BMP_temperature;BMP_pressure;BME280_temperature;BME280_humidity;BME280_pressure;Samples;Min_cycle;Max_cycle;Signal;HPM_P1;HPM_P2
2022/03/26 00:08:36;;;;;;;6.60;4.20;;;;;;;;;;20254266;29;20127;-79
2022/03/26 00:19:26;;;;;;;6.30;5.25;;;;;;;;;;20257562;29;20499;-79
2022/03/26 00:29:33;;;;;;;;;;;;;;;;;;20245283;28;20392;-78
2022/03/26 00:40:00;;;;;;;6.55;4.50;;;;;;;;;;20263124;29;19931;-78
2022/03/26 00:50:19;;;;;;;5.57;4.70;;;;;;;;;;20246466;29;20414;-78
2022/03/26 01:00:32;;;;;;;6.22;4.60;;;;;;;;;;20259717;29;20056;-79
2022/03/26 01:10:58;;;;;;;5.93;4.68;;;;;;;;;;20257850;29;20072;-79
2022/03/26 01:21:13;;;;;;;7.80;5.07;;;;;;;;;;20256987;29;20066;-78
2022/03/26 01:31:34;;;;;;;6.75;5.15;;;;;;;;;;20240447;29;20088;-78
2022/03/26 01:41:51;;;;;;;6.90;5.38;;;;;;;;;;20240791;29;20503;-78
2022/03/26 01:51:57;;;;;;;8.38;6.10;;;;;;;;;;20222833;29;20045;-78
2022/03/26 02:02:04;;;;;;;7.55;5.25;;;;;;;;;;20250172;29;20061;-78
2022/03/26 02:12:31;;;;;;;7.53;5.50;;;;;;;;;;20236582;29;20096;-78
2022/03/26 02:22:58;;;;;;;7.35;5.70;;;;;;;;;;20228820;29;20049;-78
2022/03/26 02:33:26;;;;;;;9.57;6.75;;;;;;;;;;20221252;29;20080;-79
2022/03/26 02:43:53;;;;;;;8.48;6.20;;;;;;;;;;20235792;29;20068;-79
2022/03/26 02:54:06;;;;;;;8.35;6.22;;;;;;;;;;20246251;29;20045;-79
2022/03/26 03:04:12;;;;;;;7.63;5.93;;;;;;;;;;20232529;29;20072;-79
2022/03/26 03:14:32;;;;;;;8.63;6.05;;;;;;;;;;20260784;29;20052;-79
2022/03/26 03:24:53;;;;;;;7.75;5.38;;;;;;;;;;20246413;29;20083;-79
2022/03/26 03:35:16;;;;;;;7.97;5.63;;;;;;;;;;20217647;29;20052;-78
2022/03/26 03:45:34;;;;;;;8.02;5.57;;;;;;;;;;20229865;29;20057;-79
2022/03/26 03:55:55;;;;;;;8.43;6.13;;;;;;;;;;20247987;29;20072;-79
2022/03/26 04:05:58;;;;;;;7.38;5.25;;;;;;;;;;20693254;23;20060;-79
2022/03/26 04:16:00;;;;;;;7.07;5.50;;;;;;;;;;20201408;29;20056;-78
2022/03/26 04:26:02;;;;;;;6.95;5.65;;;;;;;;;;20233469;29;20108;-78
2022/03/26 04:36:04;;;;;;;7.35;5.10;;;;;;;;;;20245463;29;20044;-78
2022/03/26 04:46:05;;;;;;;7.03;5.28;;;;;;;;;;20211364;29;20065;-78
2022/03/26 04:56:07;;;;;;;8.65;5.63;;;;;;;;;;20252144;29;20126;-78
2022/03/26 05:06:09;;;;;;;8.13;5.80;;;;;;;;;;20253733;29;20128;-79
2022/03/26 05:16:11;;;;;;;7.80;5.57;;;;;;;;;;20205038;29;20140;-78
2022/03/26 05:26:13;;;;;;;6.20;4.72;;;;;;;;;;20219902;29;20056;-78
2022/03/26 05:36:15;;;;;;;6.90;4.68;;;;;;;;;;20164819;29;20131;-79
2022/03/26 05:46:16;;;;;;;4.85;3.97;;;;;;;;;;20222869;29;20065;-81
2022/03/26 05:56:18;;;;;;;4.97;4.00;;;;;;;;;;20212073;29;20064;-78
2022/03/26 06:06:20;;;;;;;5.97;4.07;;;;;;;;;;20217493;29;20057;-78
2022/03/26 06:16:22;;;;;;;4.80;3.88;;;;;;;;;;20203930;29;20053;-76
2022/03/26 06:26:23;;;;;;;5.78;4.50;;;;;;;;;;20216747;29;20100;-76
2022/03/26 06:36:26;;;;;;;7.22;5.30;;;;;;;;;;20263070;29;20061;-76
2022/03/26 06:46:28;;;;;;;6.55;4.78;;;;;;;;;;20232797;29;20049;-76
2022/03/26 06:56:29;;;;;;;6.50;4.50;;;;;;;;;;20217477;29;20143;-76
2022/03/26 07:06:31;;;;;;;7.05;5.00;;;;;;;;;;20213247;29;20865;-76
2022/03/26 07:16:33;;;;;;;7.20;5.10;;;;;;;;;;20209060;29;20475;-77
2022/03/26 07:26:35;;;;;;;7.82;5.72;;;;;;;;;;20221095;29;20056;-77
2022/03/26 07:36:37;;;;;;;7.55;5.53;;;;;;;;;;20213995;29;20053;-78
2022/03/26 07:46:39;;;;;;;8.30;5.93;;;;;;;;;;20187261;29;20131;-77
2022/03/26 07:56:41;;;;;;;9.40;5.82;;;;;;;;;;20187083;29;20045;-77
2022/03/26 08:06:42;;;;;;;6.13;4.65;;;;;;;;;;20186606;29;20052;-78
2022/03/26 08:16:44;;;;;;;7.60;5.63;;;;;;;;;;20169960;29;20477;-77
2022/03/26 08:26:46;;;;;;;7.30;5.28;;;;;;;;;;20186067;29;20052;-77
2022/03/26 08:36:48;;;;;;;8.25;5.68;;;;;;;;;;20199996;29;20053;-77
2022/03/26 08:46:50;;;;;;;7.25;5.25;;;;;;;;;;20203288;29;20084;-78
2022/03/26 08:56:52;;;;;;;8.02;5.43;;;;;;;;;;20214392;29;20071;-76
2022/03/26 09:06:54;;;;;;;7.13;4.85;;;;;;;;;;20274725;29;20084;-77
2022/03/26 09:16:56;;;;;;;6.78;4.93;;;;;;;;;;20213411;29;20056;-76
2022/03/26 09:26:58;;;;;;;7.45;4.80;;;;;;;;;;20196830;29;20045;-76
2022/03/26 09:37:00;;;;;;;7.85;5.57;;;;;;;;;;20221330;29;20120;-77
2022/03/26 09:47:06;;;;;;;7.38;5.43;;;;;;;;;;20254040;29;20056;-77
2022/03/26 09:57:08;;;;;;;7.82;4.90;;;;;;;;;;20242597;29;20051;-77
2022/03/26 10:07:10;;;;;;;5.97;4.85;;;;;;;;;;20237797;29;20057;-77
2022/03/26 10:17:32;;;;;;;8.40;6.00;;;;;;;;;;20202706;29;20044;-77
2022/03/26 10:27:38;;;;;;;7.80;5.63;;;;;;;;;;20192191;29;20060;-76
2022/03/26 10:37:44;;;;;;;8.18;6.18;;;;;;;;;;20191647;29;20488;-76
2022/03/26 10:47:47;;;;;;;9.40;5.45;;;;;;;;;;20191045;29;20049;-76
2022/03/26 10:57:50;;;;;;;8.10;5.93;;;;;;;;;;20189333;29;20053;-76
2022/03/26 11:07:53;;;;;;;6.57;5.30;;;;;;;;;;20189695;29;20065;-76
2022/03/26 11:18:01;;;;;;;6.95;5.35;;;;;;;;;;20188944;29;20500;-76
2022/03/26 11:28:23;;;;;;;7.57;5.85;;;;;;;;;;20188556;29;20053;-78
2022/03/26 11:38:27;;;;;;;9.25;5.75;;;;;;;;;;20187998;29;20285;-76
2022/03/26 11:59:18;;;;;;;6.35;4.80;;;;;;;;;;20186450;29;20067;-76
2022/03/26 12:09:33;;;;;;;5.05;4.30;;;;;;;;;;20204446;29;20079;-77
2022/03/26 12:19:38;;;;;;;5.63;4.85;;;;;;;;;;20201968;29;20514;-76
2022/03/26 12:29:40;;;;;;;7.88;5.13;;;;;;;;;;20201180;29;20053;-77
2022/03/26 12:39:43;;;;;;;6.68;4.70;;;;;;;;;;20184445;29;20057;-76
2022/03/26 12:49:49;;;;;;;5.78;4.15;;;;;;;;;;20199776;29;20394;-76
2022/03/26 12:59:52;;;;;;;4.40;3.47;;;;;;;;;;20198807;29;20457;-76
2022/03/26 13:09:54;;;;;;;4.13;3.55;;;;;;;;;;20182078;29;20511;-76
2022/03/26 13:19:57;;;;;;;3.58;3.05;;;;;;;;;;20196541;29;20574;-76
2022/03/26 13:30:11;;;;;;;4.10;2.88;;;;;;;;;;20196774;29;20053;-76
2022/03/26 13:40:13;;;;;;;3.97;2.95;;;;;;;;;;20196307;29;20072;-76
2022/03/26 13:50:15;;;;;;;3.90;3.25;;;;;;;;;;20195591;29;20071;-76
2022/03/26 14:00:17;;;;;;;3.78;2.90;;;;;;;;;;20178402;29;20111;-77
2022/03/26 14:10:28;;;;;;;4.03;2.50;;;;;;;;;;20194571;29;20060;-77
2022/03/26 14:20:31;;;;;;;3.35;2.75;;;;;;;;;;20270298;29;20059;-77
2022/03/26 14:30:32;;;;;;;4.05;2.47;;;;;;;;;;20231168;29;20159;-77
2022/03/26 14:40:35;;;;;;;2.80;2.50;;;;;;;;;;20189954;29;20391;-76
2022/03/26 14:50:37;;;;;;;2.80;2.25;;;;;;;;;;20175038;29;20057;-76
2022/03/26 15:00:39;;;;;;;3.17;2.22;;;;;;;;;;20190227;29;20056;-76
2022/03/26 15:10:41;;;;;;;2.08;1.77;;;;;;;;;;20189476;29;20073;-76
2022/03/26 15:20:43;;;;;;;1.75;1.52;;;;;;;;;;20188907;29;20140;-76
2022/03/26 15:30:44;;;;;;;1.95;1.67;;;;;;;;;;20188293;29;20060;-76
2022/03/26 15:40:46;;;;;;;2.25;1.40;;;;;;;;;;20187072;29;20127;-76
2022/03/26 15:50:48;;;;;;;1.90;1.40;;;;;;;;;;20187545;29;20041;-77
2022/03/26 16:00:50;;;;;;;2.50;1.50;;;;;;;;;;20186985;29;20168;-76
2022/03/26 16:10:51;;;;;;;2.72;1.38;;;;;;;;;;20186782;29;20152;-78
2022/03/26 16:20:53;;;;;;;2.53;1.40;;;;;;;;;;20186301;29;20060;-78
2022/03/26 16:30:55;;;;;;;1.35;1.20;;;;;;;;;;20186094;29;20057;-77
2022/03/26 16:40:57;;;;;;;1.95;1.20;;;;;;;;;;20185960;29;20045;-78
2022/03/26 16:50:59;;;;;;;2.35;1.40;;;;;;;;;;20173516;29;20048;-78
2022/03/26 17:01:00;;;;;;;1.48;0.90;;;;;;;;;;20199362;29;20057;-77
2022/03/26 17:11:03;;;;;;;3.10;1.33;;;;;;;;;;20199732;29;20072;-78
2022/03/26 17:21:04;;;;;;;1.55;1.00;;;;;;;;;;20197450;29;20049;-78
2022/03/26 17:31:06;;;;;;;2.17;0.93;;;;;;;;;;20197059;29;20083;-78
2022/03/26 17:41:08;;;;;;;1.05;0.90;;;;;;;;;;20194812;29;20057;-76
2022/03/26 17:51:10;;;;;;;1.30;1.10;;;;;;;;;;20179037;29;20458;-76
2022/03/26 18:01:12;;;;;;;1.25;0.90;;;;;;;;;;20231478;29;20075;-75
2022/03/26 18:11:14;;;;;;;1.65;0.90;;;;;;;;;;20247325;29;20053;-75
2022/03/26 18:21:15;;;;;;;1.85;1.00;;;;;;;;;;20204060;29;20041;-75
2022/03/26 18:31:17;;;;;;;1.73;1.10;;;;;;;;;;20240601;29;20144;-76
2022/03/26 18:41:20;;;;;;;3.25;1.23;;;;;;;;;;20163508;29;20053;-76
2022/03/26 18:51:22;;;;;;;1.73;1.27;;;;;;;;;;20186436;29;20535;-76
2022/03/26 19:01:23;;;;;;;1.52;1.42;;;;;;;;;;20174075;29;20132;-76
2022/03/26 19:11:26;;;;;;;2.00;1.70;;;;;;;;;;20209699;29;20291;-75
2022/03/26 19:21:28;;;;;;;2.58;1.80;;;;;;;;;;20266032;29;20096;-77
2022/03/26 19:31:30;;;;;;;3.15;1.85;;;;;;;;;;20258556;29;20056;-76
2022/03/26 19:41:32;;;;;;;1.80;1.55;;;;;;;;;;20203424;29;20052;-77
2022/03/26 19:51:34;;;;;;;2.38;1.58;;;;;;;;;;20214598;29;20041;-78
2022/03/26 20:01:36;;;;;;;2.17;1.70;;;;;;;;;;20218251;29;20139;-79
2022/03/26 20:11:41;;;;;;;3.97;2.15;;;;;;;;;;20216081;29;20052;-78
2022/03/26 20:21:44;;;;;;;2.92;1.50;;;;;;;;;;20196543;29;20044;-77
2022/03/26 20:31:47;;;;;;;2.78;1.90;;;;;;;;;;20215681;29;20053;-77
2022/03/26 20:41:49;;;;;;;3.25;2.30;;;;;;;;;;20233873;29;20048;-77
2022/03/26 20:51:52;;;;;;;4.80;2.88;;;;;;;;;;20212057;29;20132;-78
2022/03/26 21:01:54;;;;;;;5.32;3.33;;;;;;;;;;20219045;29;20061;-77
2022/03/26 21:11:56;;;;;;;5.22;3.47;;;;;;;;;;20189068;29;20499;-78
2022/03/26 21:21:57;;;;;;;4.82;3.80;;;;;;;;;;20189416;29;20131;-78
2022/03/26 21:31:59;;;;;;;4.63;3.78;;;;;;;;;;20235497;29;20920;-77
2022/03/26 21:42:01;;;;;;;5.20;3.42;;;;;;;;;;20231844;29;20483;-78
2022/03/26 21:52:04;;;;;;;4.30;3.22;;;;;;;;;;20227826;29;20060;-78
2022/03/26 22:02:06;;;;;;;5.50;3.65;;;;;;;;;;20201946;29;20132;-78
2022/03/26 22:12:11;;;;;;;5.23;3.60;;;;;;;;;;20219727;29;20048;-77
2022/03/26 22:22:13;;;;;;;5.18;3.45;;;;;;;;;;20230842;29;20068;-77
2022/03/26 22:32:16;;;;;;;4.38;3.30;;;;;;;;;;20236353;29;20053;-77
2022/03/26 22:42:37;;;;;;;6.68;3.67;;;;;;;;;;20181795;29;20101;-78
2022/03/26 22:52:39;;;;;;;5.20;3.13;;;;;;;;;;20232477;29;20127;-78
2022/03/26 23:02:41;;;;;;;4.47;2.65;;;;;;;;;;20229218;29;20500;-78
2022/03/26 23:12:43;;;;;;;4.95;3.15;;;;;;;;;;20226365;29;20058;-78
2022/03/26 23:22:44;;;;;;;4.00;3.05;;;;;;;;;;20224267;29;20053;-78
2022/03/26 23:32:48;;;;;;;4.00;3.20;;;;;;;;;;20198811;29;20052;-78
2022/03/26 23:42:50;;;;;;;4.32;3.38;;;;;;;;;;20179192;29;20124;-78
2022/03/26 23:52:52;;;;;;;4.72;3.47;;;;;;;;;;20181105;29;20049;-78
